Time;durP1;ratioP1;P1;durP2;ratioP2;P2;SDS_P1;SDS_P2;PMS_P1;PMS_P2;Temp;Humidity;BMP_temperature;BMP_pressure;BME280_temperature;BME280_humidity;BME280_pressure;Samples;Min_cycle;Max_cycle;Signal;HPM_P1;HPM_P2
2023/03/07 00:00:11;;;;;;;4.85;1.13;;;2.80;99.90;;;;;;4830627;29;20500;-59
2023/03/07 00:02:39;;;;;;;4.22;0.95;;;2.70;99.90;;;;;;4821523;29;20054;-60
2023/03/07 00:05:07;;;;;;;7.85;1.38;;;2.70;99.90;;;;;;4835492;29;20803;-60
2023/03/07 00:07:35;;;;;;;7.50;1.02;;;2.70;99.90;;;;;;4836809;29;20050;-60
2023/03/07 00:10:06;;;;;;;2.67;0.93;;;2.70;99.90;;;;;;4839394;29;20045;-59
2023/03/07 00:12:34;;;;;;;7.03;1.33;;;2.70;99.90;;;;;;4806444;29;20498;-60
2023/03/07 00:15:03;;;;;;;4.45;1.02;;;2.70;99.90;;;;;;4843910;29;20054;-59
2023/03/07 00:17:31;;;;;;;5.22;0.85;;;2.70;99.90;;;;;;4838189;29;20084;-60
2023/03/07 00:20:05;;;;;;;10.02;1.70;;;2.70;99.90;;;;;;4839333;29;20046;-59
2023/03/07 00:22:34;;;;;;;4.45;1.30;;;2.70;99.90;;;;;;4839332;29;20054;-59
2023/03/07 00:25:02;;;;;;;5.80;1.87;;;2.70;99.90;;;;;;4838354;29;20046;-59
2023/03/07 00:27:31;;;;;;;5.80;1.15;;;2.80;99.90;;;;;;4811691;29;20059;-59
2023/03/07 00:29:59;;;;;;;6.78;0.98;;;2.80;99.90;;;;;;4828208;29;20049;-61
2023/03/07 00:32:28;;;;;;;4.10;1.30;;;;;;;;;;4802914;29;20055;-60
2023/03/07 00:34:57;;;;;;;9.20;1.75;;;2.80;99.90;;;;;;4826855;29;20062;-59
2023/03/07 00:37:25;;;;;;;8.00;1.20;;;2.80;99.90;;;;;;4808381;29;20511;-59
2023/03/07 00:39:53;;;;;;;8.48;1.75;;;2.80;99.90;;;;;;4822367;29;20520;-60
2023/03/07 00:42:20;;;;;;;3.38;0.82;;;2.80;99.90;;;;;;4824146;29;20050;-59
2023/03/07 00:44:53;;;;;;;11.32;1.77;;;2.80;99.90;;;;;;4806497;29;20380;-60
2023/03/07 00:47:22;;;;;;;6.45;1.17;;;2.80;99.90;;;;;;4819325;29;20046;-61
2023/03/07 00:49:50;;;;;;;5.18;1.00;;;2.80;99.90;;;;;;4838655;29;20487;-60
2023/03/07 00:52:21;;;;;;;5.63;1.55;;;2.80;99.90;;;;;;4837509;29;20049;-60
2023/03/07 00:54:49;;;;;;;5.20;0.88;;;2.80;99.90;;;;;;4836900;29;20050;-60
2023/03/07 00:57:17;;;;;;;7.07;1.00;;;2.70;99.90;;;;;;4825650;29;20050;-58
2023/03/07 00:59:46;;;;;;;7.90;1.20;;;2.80;99.90;;;;;;4818787;29;20042;-60
2023/03/07 01:02:14;;;;;;;5.60;0.98;;;2.80;99.90;;;;;;4817443;29;20053;-59
2023/03/07 01:04:41;;;;;;;6.18;1.20;;;2.80;99.90;;;;;;4827617;29;20070;-60
2023/03/07 01:07:09;;;;;;;3.67;1.02;;;2.80;99.90;;;;;;4835338;29;20050;-59
2023/03/07 01:09:36;;;;;;;9.20;1.38;;;2.80;99.90;;;;;;4825670;29;20770;-59
2023/03/07 01:12:06;;;;;;;9.10;1.48;;;2.80;99.90;;;;;;4818282;29;20427;-60
2023/03/07 01:14:33;;;;;;;2.85;1.38;;;2.80;99.90;;;;;;4828040;29;20053;-60
2023/03/07 01:17:02;;;;;;;7.25;1.25;;;2.70;99.90;;;;;;4837013;29;20053;-59
2023/03/07 01:19:30;;;;;;;10.75;1.00;;;2.70;99.90;;;;;;4830983;29;20063;-59
2023/03/07 01:21:58;;;;;;;4.75;1.00;;;2.70;99.90;;;;;;4813863;29;20069;-59
2023/03/07 01:24:26;;;;;;;2.53;0.73;;;2.80;99.90;;;;;;4825035;29;20053;-61
2023/03/07 01:26:53;;;;;;;6.80;1.83;;;2.70;99.90;;;;;;4829697;29;20047;-60
2023/03/07 01:29:23;;;;;;;8.85;1.17;;;2.70;99.90;;;;;;4833346;29;20046;-59
2023/03/07 01:31:51;;;;;;;5.28;1.10;;;2.70;99.90;;;;;;4838198;29;20050;-60
2023/03/07 01:34:22;;;;;;;5.15;0.98;;;2.70;99.90;;;;;;4836502;29;20050;-60
2023/03/07 01:36:51;;;;;;;;;;;2.70;99.90;;;;;;4837348;29;20488;-59
2023/03/07 01:39:19;;;;;;;5.07;0.90;;;2.70;99.90;;;;;;4834616;29;20353;-60
2023/03/07 01:41:56;;;;;;;10.95;1.45;;;2.60;99.90;;;;;;4817993;29;20062;-60
2023/03/07 01:44:27;;;;;;;5.57;1.10;;;2.70;99.90;;;;;;4827204;29;20080;-59
2023/03/07 01:46:58;;;;;;;5.05;0.95;;;2.60;99.90;;;;;;4836667;29;20592;-59
2023/03/07 01:49:38;;;;;;;5.32;0.90;;;2.60;99.90;;;;;;4832892;29;20050;-59
2023/03/07 01:52:14;;;;;;;2.25;0.90;;;2.60;99.90;;;;;;4817796;29;20047;-59
2023/03/07 01:54:50;;;;;;;7.68;1.48;;;2.60;99.90;;;;;;4826622;29;20053;-59
2023/03/07 01:57:24;;;;;;;6.38;1.50;;;2.60;99.90;;;;;;4828379;29;20500;-59
2023/03/07 01:59:56;;;;;;;7.50;1.25;;;2.60;99.90;;;;;;4820364;29;20042;-61
2023/03/07 02:02:26;;;;;;;7.18;1.63;;;2.50;99.90;;;;;;4836671;29;20042;-60
2023/03/07 02:04:57;;;;;;;;;;;2.50;99.90;;;;;;4836666;29;20046;-60
2023/03/07 02:07:31;;;;;;;9.82;1.00;;;2.50;99.90;;;;;;4836921;29;20388;-59
2023/03/07 02:10:00;;;;;;;3.92;1.02;;;2.50;99.90;;;;;;4830803;29;20061;-59
2023/03/07 02:12:28;;;;;;;4.47;1.13;;;2.50;99.90;;;;;;4814528;29;20046;-59
2023/03/07 02:14:56;;;;;;;7.88;1.20;;;2.40;99.90;;;;;;4824975;29;20058;-59
2023/03/07 02:17:26;;;;;;;12.77;1.40;;;2.40;99.90;;;;;;4837270;29;20060;-60
2023/03/07 02:20:00;;;;;;;4.15;0.80;;;2.40;99.90;;;;;;4835370;29;20050;-60
2023/03/07 02:22:28;;;;;;;8.10;1.13;;;2.40;99.90;;;;;;4818367;29;20679;-61
2023/03/07 02:25:10;;;;;;;7.03;1.35;;;0.50;99.90;;;;;;4826064;29;20164;-60
2023/03/07 02:27:39;;;;;;;3.95;0.90;;;2.40;99.90;;;;;;4807137;29;20522;-60
2023/03/07 02:30:10;;;;;;;7.35;1.00;;;2.40;99.90;;;;;;4838300;29;20053;-60
2023/03/07 02:32:39;;;;;;;6.00;1.17;;;2.40;99.90;;;;;;4807597;29;20065;-58
2023/03/07 02:35:16;;;;;;;8.00;1.13;;;2.30;99.90;;;;;;4806358;29;20051;-59
2023/03/07 02:37:48;;;;;;;;;;;2.40;99.90;;;;;;4811995;29;20053;-59
2023/03/07 02:40:20;;;;;;;6.82;0.93;;;2.40;99.90;;;;;;4819082;29;19925;-59
2023/03/07 02:42:54;;;;;;;5.78;1.00;;;2.30;99.90;;;;;;4838213;29;20065;-60
2023/03/07 02:45:23;;;;;;;5.22;1.42;;;2.30;99.90;;;;;;4823481;29;20051;-59
2023/03/07 02:47:53;;;;;;;9.00;1.05;;;2.30;99.90;;;;;;4824642;29;20073;-59
2023/03/07 02:50:21;;;;;;;4.53;1.00;;;2.30;99.90;;;;;;4824478;29;20038;-60
2023/03/07 02:52:52;;;;;;;4.82;1.05;;;2.20;99.90;;;;;;4824547;29;20050;-60
2023/03/07 02:55:20;;;;;;;9.43;1.58;;;2.20;99.90;;;;;;4823315;29;20066;-59
2023/03/07 02:57:55;;;;;;;5.78;1.25;;;2.20;99.90;;;;;;4823842;29;20046;-59
2023/03/07 03:00:24;;;;;;;4.25;1.13;;;2.10;99.90;;;;;;4833935;29;20406;-58
2023/03/07 03:02:52;;;;;;;7.07;1.48;;;2.10;99.90;;;;;;4824336;29;20549;-59
2023/03/07 03:05:20;;;;;;;5.75;1.10;;;2.10;99.90;;;;;;4805946;29;20289;-58
2023/03/07 03:07:51;;;;;;;6.03;1.05;;;2.00;99.90;;;;;;4807326;29;20058;-59
2023/03/07 03:10:19;;;;;;;3.55;1.05;;;2.00;99.90;;;;;;4805865;29;20058;-58
2023/03/07 03:12:47;;;;;;;7.78;1.23;;;2.00;99.90;;;;;;4821148;29;20058;-59
2023/03/07 03:15:16;;;;;;;5.70;1.15;;;1.90;99.90;;;;;;4823940;29;20066;-59
2023/03/07 03:17:51;;;;;;;11.90;1.30;;;1.90;99.90;;;;;;4821852;29;20057;-59
2023/03/07 03:20:20;;;;;;;5.00;1.20;;;1.90;99.90;;;;;;4823234;29;20081;-58
2023/03/07 03:22:53;;;;;;;5.63;1.08;;;1.90;99.90;;;;;;4812615;29;20551;-59
2023/03/07 03:25:23;;;;;;;7.82;1.10;;;1.90;99.90;;;;;;4805713;29;20047;-59
2023/03/07 03:27:51;;;;;;;8.20;1.55;;;1.80;99.90;;;;;;4805694;29;20055;-59
2023/03/07 03:30:19;;;;;;;2.30;1.02;;;1.90;99.90;;;;;;4823570;29;20120;-59
2023/03/07 03:32:46;;;;;;;4.82;1.00;;;1.90;99.90;;;;;;4826621;29;20058;-58
2023/03/07 03:35:17;;;;;;;7.68;1.55;;;1.90;99.90;;;;;;4806361;29;20051;-60
2023/03/07 03:37:46;;;;;;;3.22;1.20;;;1.90;99.90;;;;;;4805703;29;20399;-60
2023/03/07 03:40:16;;;;;;;4.18;1.38;;;1.90;99.90;;;;;;4805521;29;20055;-59
2023/03/07 03:42:45;;;;;;;6.50;1.40;;;1.90;99.90;;;;;;4811212;29;20061;-59
2023/03/07 03:45:16;;;;;;;4.85;1.00;;;1.90;99.90;;;;;;4805441;29;20443;-59
2023/03/07 03:47:47;;;;;;;9.15;1.20;;;1.90;99.90;;;;;;4806688;29;20062;-59
2023/03/07 03:50:16;;;;;;;8.18;1.85;;;1.90;99.90;;;;;;4805549;29;20043;-59
2023/03/07 03:52:44;;;;;;;4.55;1.33;;;2.00;99.90;;;;;;4818530;29;20045;-58
2023/03/07 03:55:12;;;;;;;20.25;2.38;;;4.00;99.90;;;;;;4805397;29;20487;-59
2023/03/07 03:57:40;;;;;;;6.47;2.20;;;2.00;99.90;;;;;;4804724;29;20055;-60
2023/03/07 04:00:09;;;;;;;8.27;1.83;;;2.00;99.90;;;;;;4822792;29;20049;-59
2023/03/07 04:02:40;;;;;;;5.97;1.75;;;2.00;99.90;;;;;;4827305;29;20047;-59
2023/03/07 04:05:15;;;;;;;2.72;1.30;;;2.00;99.90;;;;;;4823358;29;20563;-60
2023/03/07 04:07:43;;;;;;;3.53;1.63;;;2.00;99.90;;;;;;4822940;29;20428;-59
2023/03/07 04:10:11;;;;;;;13.75;1.67;;;2.00;99.90;;;;;;4805249;29;20062;-58
2023/03/07 04:12:40;;;;;;;5.55;1.48;;;2.00;99.90;;;;;;4817964;29;20050;-61
2023/03/07 04:15:08;;;;;;;4.03;0.90;;;2.00;99.90;;;;;;4823930;29;20050;-59
2023/03/07 04:17:36;;;;;;;8.05;1.67;;;1.90;99.90;;;;;;4838441;29;20069;-59
2023/03/07 04:20:04;;;;;;;2.88;1.25;;;1.90;99.90;;;;;;4823178;29;20054;-59
2023/03/07 04:22:33;;;;;;;;;;;1.90;99.90;;;;;;4833357;29;20054;-58
2023/03/07 04:25:04;;;;;;;7.75;1.48;;;2.00;99.90;;;;;;4822886;29;19925;-59
2023/03/07 04:27:35;;;;;;;7.40;1.35;;;1.90;99.90;;;;;;4822784;29;20438;-59
2023/03/07 04:30:04;;;;;;;2.65;1.45;;;1.90;99.90;;;;;;4830028;29;20250;-58
2023/03/07 04:32:33;;;;;;;3.45;1.00;;;1.90;99.90;;;;;;4829740;29;20054;-59
2023/03/07 04:35:00;;;;;;;1.30;1.20;;;2.00;99.90;;;;;;4822857;29;20055;-59
2023/03/07 04:37:28;;;;;;;4.28;1.20;;;2.00;99.90;;;;;;4822902;29;20065;-60
2023/03/07 04:39:56;;;;;;;8.65;1.00;;;2.00;99.90;;;;;;4823771;29;20486;-59
2023/03/07 04:42:23;;;;;;;1.33;0.90;;;2.00;99.90;;;;;;4816263;29;20070;-59
2023/03/07 04:44:51;;;;;;;2.55;1.20;;;2.00;99.90;;;;;;4806763;29;20042;-59
2023/03/07 04:47:19;;;;;;;1.33;0.90;;;2.00;99.90;;;;;;4804348;29;20058;-59
2023/03/07 04:49:47;;;;;;;7.32;0.95;;;2.00;99.90;;;;;;4819977;29;20061;-59
2023/03/07 04:52:15;;;;;;;2.45;0.90;;;1.90;99.90;;;;;;4822391;29;20051;-59
2023/03/07 04:54:43;;;;;;;8.82;1.25;;;1.90;99.90;;;;;;4822597;29;20058;-60
2023/03/07 04:57:12;;;;;;;5.30;1.30;;;1.90;99.90;;;;;;4816983;29;20054;-61
2023/03/07 04:59:40;;;;;;;5.57;1.30;;;1.90;99.90;;;;;;4807003;29;20054;-60
2023/03/07 05:02:11;;;;;;;1.85;0.90;;;1.90;99.90;;;;;;4811126;29;20049;-60
2023/03/07 05:04:41;;;;;;;2.28;1.25;;;1.80;99.90;;;;;;4822485;29;20050;-60
2023/03/07 05:07:08;;;;;;;3.80;0.98;;;1.80;99.90;;;;;;4811193;29;20400;-59
2023/03/07 05:09:36;;;;;;;1.55;0.75;;;1.80;99.90;;;;;;4805138;29;20055;-59
2023/03/07 05:12:04;;;;;;;0.75;0.50;;;1.70;99.90;;;;;;4807223;29;20046;-59
2023/03/07 05:14:32;;;;;;;3.38;0.77;;;1.70;99.90;;;;;;4803647;29;20062;-59
2023/03/07 05:16:59;;;;;;;1.80;0.80;;;1.60;99.90;;;;;;4803978;29;20064;-59
2023/03/07 05:19:28;;;;;;;4.70;1.00;;;1.50;99.90;;;;;;4803895;29;20055;-59
2023/03/07 05:21:56;;;;;;;1.63;0.93;;;1.50;99.90;;;;;;4815206;29;20049;-60
2023/03/07 05:24:24;;;;;;;2.28;1.00;;;1.40;99.90;;;;;;4821939;29;20073;-59
2023/03/07 05:26:52;;;;;;;1.50;0.93;;;1.40;99.90;;;;;;4823018;29;20495;-60
2023/03/07 05:29:19;;;;;;;4.28;0.95;;;1.40;99.90;;;;;;4823608;29;20406;-59
2023/03/07 05:31:47;;;;;;;1.40;0.85;;;1.30;99.90;;;;;;4809006;29;20068;-60
2023/03/07 05:34:15;;;;;;;4.07;0.90;;;1.30;99.90;;;;;;4822111;29;20046;-59
2023/03/07 05:36:43;;;;;;;3.63;0.82;;;1.30;99.90;;;;;;4806843;29;20050;-60
2023/03/07 05:39:11;;;;;;;2.50;1.00;;;1.20;99.90;;;;;;4822027;29;20050;-58
2023/03/07 05:41:40;;;;;;;4.50;1.45;;;1.20;99.90;;;;;;4821622;29;20403;-60
2023/03/07 05:44:08;;;;;;;7.73;1.10;;;1.10;99.90;;;;;;4820728;29;20058;-61
2023/03/07 05:46:36;;;;;;;5.10;1.00;;;1.10;99.90;;;;;;4804697;29;20305;-59
2023/03/07 05:49:04;;;;;;;6.65;1.20;;;1.00;99.90;;;;;;4813488;29;20066;-59
2023/03/07 05:51:32;;;;;;;2.47;0.75;;;1.00;99.90;;;;;;4817870;29;20049;-60
2023/03/07 05:54:00;;;;;;;3.30;1.00;;;0.90;99.90;;;;;;4819431;29;20058;-59
2023/03/07 05:56:28;;;;;;;2.60;1.30;;;0.90;99.90;;;;;;4816486;29;20042;-60
2023/03/07 05:58:56;;;;;;;3.20;1.40;;;0.90;99.90;;;;;;4829331;29;20066;-60
2023/03/07 06:01:25;;;;;;;6.85;1.58;;;;;;;;;;4833474;29;20050;-59
2023/03/07 06:03:53;;;;;;;3.70;1.00;;;0.80;99.90;;;;;;4807510;29;20059;-59
2023/03/07 06:06:21;;;;;;;6.60;2.15;;;0.80;99.90;;;;;;4803703;29;20062;-60
2023/03/07 06:08:49;;;;;;;5.22;1.30;;;0.80;99.90;;;;;;4830218;29;20053;-60
2023/03/07 06:11:17;;;;;;;2.15;1.05;;;0.70;99.90;;;;;;4832344;29;20061;-60
2023/03/07 06:13:45;;;;;;;3.20;1.35;;;0.70;99.90;;;;;;4832559;29;20041;-61
2023/03/07 06:16:12;;;;;;;6.65;1.25;;;0.80;99.90;;;;;;4834993;29;20054;-59
2023/03/07 06:18:41;;;;;;;2.30;1.40;;;0.80;99.90;;;;;;4805565;29;20054;-59
2023/03/07 06:21:11;;;;;;;4.43;1.38;;;0.80;99.90;;;;;;4801790;29;20808;-59
2023/03/07 06:23:46;;;;;;;6.60;1.40;;;0.80;99.90;;;;;;4829006;29;20057;-60
2023/03/07 06:26:18;;;;;;;6.63;1.52;;;0.70;99.90;;;;;;4828804;29;20054;-59
2023/03/07 06:28:50;;;;;;;2.35;1.10;;;0.70;99.90;;;;;;4829501;29;20558;-60
2023/03/07 06:31:18;;;;;;;3.22;1.33;;;0.60;99.90;;;;;;4822738;29;20057;-59
2023/03/07 06:33:46;;;;;;;3.35;1.40;;;0.60;99.90;;;;;;4827141;29;20045;-59
2023/03/07 06:36:17;;;;;;;;;;;0.60;99.90;;;;;;4833834;29;20054;-60
2023/03/07 06:38:49;;;;;;;6.38;1.70;;;0.50;99.90;;;;;;4832816;29;19971;-60
2023/03/07 06:41:17;;;;;;;6.75;1.42;;;0.50;99.90;;;;;;4835198;29;20062;-60
2023/03/07 06:43:45;;;;;;;2.13;1.30;;;0.40;99.90;;;;;;4832526;29;20053;-60
2023/03/07 06:46:13;;;;;;;4.72;1.63;;;0.40;99.90;;;;;;4823953;29;20407;-59
2023/03/07 06:48:43;;;;;;;4.75;1.58;;;0.30;99.90;;;;;;4808190;29;20043;-59
2023/03/07 06:51:14;;;;;;;4.10;1.90;;;0.30;99.90;;;;;;4800821;29;20054;-60
2023/03/07 06:53:44;;;;;;;3.33;1.60;;;0.20;99.90;;;;;;4819682;29;20765;-60
2023/03/07 06:56:12;;;;;;;4.07;1.52;;;0.20;99.90;;;;;;4789031;29;20088;-59
2023/03/07 06:58:45;;;;;;;13.85;1.75;;;0.20;99.90;;;;;;4812323;29;20054;-60
2023/03/07 07:01:19;;;;;;;5.13;2.17;;;0.20;99.90;;;;;;4832886;29;20411;-60
2023/03/07 07:03:49;;;;;;;7.07;2.25;;;0.20;99.90;;;;;;4813127;29;20415;-60
2023/03/07 07:06:18;;;;;;;6.13;2.08;;;0.10;99.90;;;;;;4800938;29;20342;-59
2023/03/07 07:08:48;;;;;;;4.32;1.70;;;0.10;99.90;;;;;;4830852;29;20058;-60
2023/03/07 07:11:15;;;;;;;3.42;1.85;;;0.10;99.90;;;;;;4840187;29;20068;-59
2023/03/07 07:13:44;;;;;;;7.30;2.17;;;0.00;99.90;;;;;;4830687;29;20049;-59
2023/03/07 07:16:17;;;;;;;2.58;1.63;;;0.10;99.90;;;;;;4839369;29;20085;-60
2023/03/07 07:18:45;;;;;;;6.00;2.13;;;;;;;;;;4828001;29;20484;-59
2023/03/07 07:21:13;;;;;;;8.32;2.67;;;;;;;;;;4818385;29;20055;-61
2023/03/07 07:23:42;;;;;;;8.32;2.85;;;0.10;99.90;;;;;;4831240;29;20045;-60
2023/03/07 07:26:10;;;;;;;3.00;1.92;;;0.10;99.90;;;;;;4836715;29;20057;-61
2023/03/07 07:28:38;;;;;;;5.75;2.20;;;0.10;99.90;;;;;;4838975;29;20436;-59
2023/03/07 07:31:08;;;;;;;6.40;2.80;;;0.10;99.90;;;;;;4808835;29;20043;-59
2023/03/07 07:33:36;;;;;;;3.70;2.75;;;0.00;99.90;;;;;;4816314;29;20046;-59
2023/03/07 07:36:06;;;;;;;3.70;2.53;;;0.00;99.90;;;;;;4813550;29;20042;-60
2023/03/07 07:38:35;;;;;;;4.75;2.65;;;;;;;;;;4817267;29;20316;-59
2023/03/07 07:41:03;;;;;;;15.75;3.08;;;0.10;99.90;;;;;;4830118;29;20047;-59
2023/03/07 07:43:32;;;;;;;10.50;3.58;;;0.10;99.90;;;;;;4830034;29;20050;-60
2023/03/07 07:46:16;;;;;;;9.15;3.08;;;0.10;99.90;;;;;;4836513;29;20052;-60
2023/03/07 07:48:47;;;;;;;7.85;3.67;;;0.20;99.90;;;;;;4827475;29;20042;-60
2023/03/07 07:51:15;;;;;;;8.68;3.40;;;0.30;99.90;;;;;;4800868;29;20058;-60
2023/03/07 07:53:43;;;;;;;10.57;3.45;;;0.20;99.90;;;;;;4830026;29;20061;-59
2023/03/07 07:56:12;;;;;;;5.93;3.53;;;0.30;99.90;;;;;;4839557;29;20054;-60
2023/03/07 07:58:40;;;;;;;9.05;4.55;;;0.30;99.90;;;;;;4825925;29;20046;-59
2023/03/07 08:01:13;;;;;;;7.82;4.63;;;0.40;99.90;;;;;;4818087;29;20042;-60
2023/03/07 08:03:40;;;;;;;9.25;5.18;;;0.50;99.90;;;;;;4825023;29;20049;-59
2023/03/07 08:06:09;;;;;;;15.02;5.45;;;0.60;99.90;;;;;;4799486;29;20077;-60
2023/03/07 08:08:37;;;;;;;11.55;5.10;;;0.60;99.90;;;;;;4806395;29;20054;-59
2023/03/07 08:11:05;;;;;;;12.93;4.85;;;0.70;99.90;;;;;;4809590;29;20050;-60
2023/03/07 08:13:33;;;;;;;8.40;5.28;;;0.80;99.90;;;;;;4824630;29;20416;-59
2023/03/07 08:16:08;;;;;;;12.80;5.60;;;0.80;99.90;;;;;;4815973;29;20065;-59
2023/03/07 08:18:36;;;;;;;15.35;5.03;;;0.90;99.90;;;;;;4815455;29;20054;-58
2023/03/07 08:21:04;;;;;;;12.50;4.97;;;1.00;99.90;;;;;;4809743;29;20042;-59
2023/03/07 08:23:32;;;;;;;9.30;3.88;;;0.90;99.90;;;;;;4835789;29;20517;-59
2023/03/07 08:26:05;;;;;;;10.82;4.00;;;1.00;99.90;;;;;;4833452;29;20057;-59
2023/03/07 08:28:33;;;;;;;7.28;3.22;;;1.10;99.90;;;;;;4815843;29;20050;-58
2023/03/07 08:31:09;;;;;;;9.93;4.43;;;1.10;99.90;;;;;;4826388;29;20061;-58
2023/03/07 08:33:38;;;;;;;36.72;15.48;;;1.20;99.90;;;;;;4824591;29;20063;-59
2023/03/07 08:36:06;;;;;;;36.67;17.27;;;1.20;99.90;;;;;;4795096;29;20046;-59
2023/03/07 08:38:34;;;;;;;14.43;6.05;;;1.20;99.90;;;;;;4824284;29;20058;-59
2023/03/07 08:41:05;;;;;;;8.32;3.80;;;1.30;99.90;;;;;;4800717;29;20050;-58
2023/03/07 08:43:35;;;;;;;8.38;4.57;;;1.30;99.90;;;;;;4823168;29;20050;-58
2023/03/07 08:46:03;;;;;;;11.10;3.83;;;1.40;99.90;;;;;;4820699;29;20057;-59
2023/03/07 08:48:32;;;;;;;8.38;3.78;;;1.40;99.90;;;;;;4828985;29;20491;-59
2023/03/07 08:51:08;;;;;;;10.38;4.22;;;1.40;99.90;;;;;;4812257;29;20059;-59
2023/03/07 08:53:41;;;;;;;6.13;3.70;;;1.50;99.90;;;;;;4833281;29;20061;-59
2023/03/07 08:56:12;;;;;;;13.50;4.93;;;1.70;99.90;;;;;;4831877;29;20063;-60
2023/03/07 08:58:40;;;;;;;14.40;4.93;;;1.70;99.90;;;;;;4805335;29;20716;-59
2023/03/07 09:01:09;;;;;;;9.15;5.03;;;1.80;99.90;;;;;;4820262;29;20050;-58
2023/03/07 09:03:39;;;;;;;10.43;5.03;;;1.90;99.90;;;;;;4823810;29;20057;-59
2023/03/07 09:06:13;;;;;;;11.95;5.20;;;2.00;99.90;;;;;;4802133;29;20062;-59
2023/03/07 09:08:41;;;;;;;10.13;4.75;;;2.00;99.90;;;;;;4825519;29;20054;-59
2023/03/07 09:11:09;;;;;;;11.75;4.85;;;2.10;99.90;;;;;;4817258;29;20054;-58
2023/03/07 09:13:38;;;;;;;14.77;4.95;;;2.10;99.90;;;;;;4817767;29;20054;-58
2023/03/07 09:16:19;;;;;;;10.30;4.93;;;2.20;99.90;;;;;;4827373;29;20427;-59
2023/03/07 09:18:47;;;;;;;17.87;6.40;;;2.20;99.90;;;;;;4826973;29;20062;-59
2023/03/07 09:21:15;;;;;;;13.18;4.57;;;2.30;99.90;;;;;;4807579;29;20061;-59
2023/03/07 09:23:43;;;;;;;11.27;4.63;;;2.40;99.90;;;;;;4826279;29;20046;-61
2023/03/07 09:26:11;;;;;;;7.47;3.22;;;2.40;99.90;;;;;;4832413;29;20058;-59
2023/03/07 09:28:40;;;;;;;9.30;3.50;;;2.50;99.90;;;;;;4813678;29;20051;-59
2023/03/07 09:31:09;;;;;;;6.28;2.63;;;2.50;99.90;;;;;;4831800;29;20061;-60
2023/03/07 09:33:37;;;;;;;;;;;2.60;99.90;;;;;;4838175;29;20509;-59
2023/03/07 09:36:11;;;;;;;6.38;1.83;;;2.60;99.90;;;;;;4802505;29;19936;-59
2023/03/07 09:38:39;;;;;;;6.13;2.03;;;2.70;99.90;;;;;;4832203;29;20045;-60
2023/03/07 09:41:38;;;;;;;6.00;1.90;;;2.70;99.90;;;;;;4812671;29;20070;-60
2023/03/07 09:44:09;;;;;;;3.05;0.63;;;2.80;99.90;;;;;;4834356;29;20081;-60
2023/03/07 09:46:59;;;;;;;3.70;1.17;;;3.00;99.90;;;;;;4837296;29;20052;-60
2023/03/07 09:49:47;;;;;;;3.22;0.80;;;3.10;99.90;;;;;;4804305;29;20050;-59
2023/03/07 09:52:21;;;;;;;3.83;1.30;;;3.40;99.90;;;;;;4821992;29;20054;-60
2023/03/07 09:54:54;;;;;;;2.25;1.45;;;3.30;99.90;;;;;;4833586;29;20498;-60
2023/03/07 09:57:39;;;;;;;7.93;0.90;;;3.50;99.90;;;;;;4806081;29;20065;-59
2023/03/07 10:00:26;;;;;;;4.45;0.73;;;3.60;99.90;;;;;;4837855;29;20061;-59
2023/03/07 10:03:15;;;;;;;3.03;0.80;;;3.60;99.90;;;;;;4835534;29;20053;-59
2023/03/07 10:05:52;;;;;;;8.52;1.00;;;3.70;99.90;;;;;;4823486;29;20058;-59
2023/03/07 10:08:32;;;;;;;1.38;0.90;;;3.70;99.90;;;;;;4828565;29;20050;-59
2023/03/07 10:11:11;;;;;;;;;;;3.70;99.90;;;;;;4836767;29;20486;-60
2023/03/07 10:14:33;;;;;;;6.05;1.05;;;3.80;99.90;;;;;;4832627;29;19928;-60
2023/03/07 10:17:29;;;;;;;3.95;1.20;;;3.80;99.90;;;;;;4835088;29;20054;-59
2023/03/07 10:20:22;;;;;;;4.05;0.68;;;3.90;99.90;;;;;;4826176;29;20046;-59
2023/03/07 10:23:21;;;;;;;3.30;0.60;;;4.10;99.90;;;;;;4825657;29;20061;-59
2023/03/07 10:26:10;;;;;;;6.30;0.68;;;4.20;99.90;;;;;;4822637;29;20561;-59
2023/03/07 10:28:41;;;;;;;0.95;0.43;;;4.30;99.90;;;;;;4831547;29;20354;-60
2023/03/07 10:31:21;;;;;;;4.50;0.65;;;4.40;99.90;;;;;;4836290;29;20050;-60
2023/03/07 10:33:51;;;;;;;8.25;0.98;;;4.60;99.90;;;;;;4837101;29;20050;-59
2023/03/07 10:36:21;;;;;;;2.95;0.50;;;4.80;99.90;;;;;;4820083;29;20507;-59
2023/03/07 10:39:13;;;;;;;2.22;0.40;;;5.00;99.90;;;;;;4834361;29;20054;-60
2023/03/07 10:41:41;;;;;;;2.95;0.50;;;4.90;99.90;;;;;;4840912;29;20050;-62
2023/03/07 10:44:17;;;;;;;15.07;4.18;;;4.80;99.90;;;;;;4837201;29;20057;-60
2023/03/07 10:46:45;;;;;;;4.63;1.42;;;4.80;99.90;;;;;;4815692;29;20042;-60
2023/03/07 10:49:42;;;;;;;4.10;1.20;;;4.70;99.90;;;;;;4816795;29;20046;-59
2023/03/07 10:52:45;;;;;;;3.92;1.02;;;4.70;99.90;;;;;;4818655;29;20042;-60
2023/03/07 10:55:36;;;;;;;3.00;0.82;;;4.90;99.90;;;;;;4855923;29;20197;-60
2023/03/07 10:58:22;;;;;;;5.53;0.63;;;5.10;99.90;;;;;;4819656;29;20057;-60
2023/03/07 11:01:14;;;;;;;1.45;0.63;;;5.10;99.90;;;;;;4840572;29;20058;-60
2023/03/07 11:03:45;;;;;;;6.57;0.70;;;5.20;99.90;;;;;;4821247;29;20058;-60
2023/03/07 11:06:38;;;;;;;3.50;0.50;;;5.10;99.90;;;;;;4800920;29;20043;-59
2023/03/07 11:09:22;;;;;;;3.17;0.47;;;5.00;99.90;;;;;;4809283;29;20059;-60
2023/03/07 11:12:12;;;;;;;1.77;0.60;;;5.00;99.90;;;;;;4802436;29;20051;-59
2023/03/07 11:14:54;;;;;;;2.80;0.47;;;5.00;99.90;;;;;;4813368;29;20403;-59
2023/03/07 11:17:23;;;;;;;1.00;0.35;;;5.00;99.90;;;;;;4805305;29;20061;-59
2023/03/07 11:19:53;;;;;;;3.00;0.47;;;5.20;99.90;;;;;;4809632;29;20050;-59
2023/03/07 11:22:24;;;;;;;5.78;0.70;;;5.20;99.90;;;;;;4809140;29;20062;-59
2023/03/07 11:25:12;;;;;;;7.30;0.75;;;5.30;99.90;;;;;;4836264;29;20061;-60
2023/03/07 11:27:52;;;;;;;3.00;0.55;;;5.40;99.90;;;;;;4806202;29;20057;-58
2023/03/07 11:30:32;;;;;;;3.95;1.45;;;5.70;99.90;;;;;;4823657;29;20054;-59
2023/03/07 11:33:14;;;;;;;2.85;0.52;;;5.90;99.90;;;;;;4831607;29;20057;-60
2023/03/07 11:35:58;;;;;;;2.72;0.50;;;6.20;99.90;;;;;;4802710;29;20058;-60
2023/03/07 11:38:45;;;;;;;5.05;0.60;;;6.40;99.90;;;;;;4819256;29;20051;-59
2023/03/07 11:41:29;;;;;;;6.05;0.60;;;6.30;99.90;;;;;;4821425;29;20420;-60
2023/03/07 11:44:26;;;;;;;7.82;0.60;;;6.30;99.90;;;;;;4818471;29;20042;-60
2023/03/07 11:47:22;;;;;;;2.55;0.90;;;6.40;99.90;;;;;;4817178;29;20059;-60
2023/03/07 11:49:56;;;;;;;3.53;0.60;;;6.60;99.90;;;;;;4819783;29;20925;-59
2023/03/07 11:52:38;;;;;;;1.15;0.77;;;6.50;99.90;;;;;;4808604;29;20061;-60
2023/03/07 11:55:30;;;;;;;1.95;0.38;;;6.50;99.90;;;;;;4802792;29;20062;-60
2023/03/07 11:58:38;;;;;;;2.47;0.50;;;6.40;99.90;;;;;;4817613;29;20058;-61
2023/03/07 12:01:20;;;;;;;1.73;0.50;;;6.40;99.90;;;;;;4827189;29;20046;-61
2023/03/07 12:04:25;;;;;;;3.17;0.65;;;7.10;99.90;;;;;;4832217;29;20073;-59
2023/03/07 12:07:34;;;;;;;4.93;0.68;;;7.10;99.90;;;;;;4803950;29;20051;-59
2023/03/07 12:10:30;;;;;;;2.72;0.65;;;7.60;99.90;;;;;;4802226;29;20055;-58
2023/03/07 12:13:15;;;;;;;4.22;0.90;;;8.60;99.90;;;;;;4807750;29;20046;-59
2023/03/07 12:16:18;;;;;;;3.75;0.95;;;8.70;99.90;;;;;;4802810;29;20051;-59
2023/03/07 12:18:52;;;;;;;4.10;0.50;;;8.50;99.90;;;;;;4811363;29;20460;-59
2023/03/07 12:21:55;;;;;;;2.35;0.50;;;8.10;99.90;;;;;;4818391;29;20073;-58
2023/03/07 12:24:28;;;;;;;2.90;0.57;;;7.10;99.90;;;;;;4815854;29;20534;-60
2023/03/07 12:27:24;;;;;;;3.20;0.40;;;7.10;99.90;;;;;;4802665;29;20050;-60
2023/03/07 12:29:59;;;;;;;3.05;0.50;;;7.70;99.90;;;;;;4814315;29;20054;-59
2023/03/07 12:32:31;;;;;;;1.05;0.38;;;8.70;99.90;;;;;;4829689;29;20065;-59
2023/03/07 12:35:15;;;;;;;1.50;0.40;;;8.80;99.90;;;;;;4809475;29;20749;-58
2023/03/07 12:37:55;;;;;;;3.95;0.77;;;9.70;99.90;;;;;;4812629;29;20537;-59
2023/03/07 12:40:32;;;;;;;1.33;0.50;;;10.50;99.90;;;;;;4831695;29;20051;-59
2023/03/07 12:43:17;;;;;;;3.47;0.73;;;10.20;95.20;;;;;;4819535;29;20535;-59
2023/03/07 12:45:57;;;;;;;1.42;0.40;;;9.60;94.00;;;;;;4836396;29;20053;-60
2023/03/07 12:48:54;;;;;;;7.43;0.47;;;8.50;97.60;;;;;;4820653;29;20054;-59
2023/03/07 12:51:35;;;;;;;3.22;0.70;;;8.50;98.50;;;;;;4816366;29;20069;-59
2023/03/07 12:54:11;;;;;;;1.88;0.50;;;8.90;99.90;;;;;;4831528;29;20065;-60
2023/03/07 12:56:58;;;;;;;1.52;0.70;;;10.20;99.90;;;;;;4819101;29;20067;-60
2023/03/07 12:59:28;;;;;;;0.70;0.40;;;10.30;99.90;;;;;;4807695;29;20046;-60
2023/03/07 13:02:15;;;;;;;0.60;0.40;;;11.00;95.10;;;;;;4801546;29;20051;-61
2023/03/07 13:04:42;;;;;;;2.65;1.23;;;11.50;95.30;;;;;;4820926;29;20054;-61
2023/03/07 13:07:12;;;;;;;1.83;0.50;;;12.20;92.30;;;;;;4812843;29;20065;-61
2023/03/07 13:09:45;;;;;;;5.07;0.60;;;12.80;87.60;;;;;;4813920;29;20055;-61
2023/03/07 13:12:15;;;;;;;4.20;0.88;;;12.80;88.10;;;;;;4819389;29;20062;-61
2023/03/07 13:14:50;;;;;;;2.65;0.73;;;13.20;80.50;;;;;;4834015;29;20054;-60
2023/03/07 13:17:30;;;;;;;4.28;0.80;;;13.20;77.90;;;;;;4805728;29;20054;-61
2023/03/07 13:19:58;;;;;;;;;;;13.20;79.00;;;;;;4838640;29;20061;-61
2023/03/07 13:22:26;;;;;;;4.55;0.65;;;13.40;83.40;;;;;;4807568;29;19924;-63
2023/03/07 13:24:55;;;;;;;2.90;0.82;;;13.50;81.70;;;;;;4811966;29;20051;-62
2023/03/07 13:27:26;;;;;;;2.73;0.30;;;13.70;80.10;;;;;;4814277;29;20058;-62